Time;durP1;ratioP1;P1;durP2;ratioP2;P2;SDS_P1;SDS_P2;PMS_P1;PMS_P2;Temp;Humidity;BMP_temperature;BMP_pressure;BME280_temperature;BME280_humidity;BME280_pressure;Samples;Min_cycle;Max_cycle;Signal;HPM_P1;HPM_P2
2021/08/31 00:02:21;;;;;;;8.00;4.25;;;24.10;99.90;;;;;;4879245;29;20460;-83
2021/08/31 00:04:46;;;;;;;7.13;4.75;;;24.10;99.90;;;;;;4878862;29;20468;-83
2021/08/31 00:07:12;;;;;;;7.82;4.22;;;24.10;99.90;;;;;;4882733;29;20125;-83
2021/08/31 00:09:37;;;;;;;5.20;4.03;;;24.10;99.90;;;;;;4865856;29;20051;-83
2021/08/31 00:12:04;;;;;;;7.22;4.32;;;24.10;99.90;;;;;;4865753;29;20057;-83
2021/08/31 00:14:29;;;;;;;6.28;4.20;;;24.00;99.90;;;;;;4882572;29;20112;-83
2021/08/31 00:16:55;;;;;;;6.50;4.32;;;24.00;99.90;;;;;;4865719;29;20112;-84
2021/08/31 00:19:20;;;;;;;9.00;5.07;;;24.10;99.90;;;;;;4882166;29;20049;-83
2021/08/31 00:21:47;;;;;;;7.55;4.57;;;24.00;99.90;;;;;;4882000;29;20088;-84
2021/08/31 00:24:13;;;;;;;5.97;4.43;;;24.10;99.90;;;;;;4882499;29;20029;-83
2021/08/31 00:26:39;;;;;;;4.95;4.03;;;24.00;99.90;;;;;;4865690;29;20388;-84
2021/08/31 00:29:04;;;;;;;6.32;3.47;;;24.10;99.90;;;;;;4882159;29;20041;-84
2021/08/31 00:31:30;;;;;;;5.72;4.15;;;24.10;99.90;;;;;;4865672;29;20033;-83
2021/08/31 00:33:56;;;;;;;5.85;4.32;;;24.00;99.90;;;;;;4882123;29;20552;-84
2021/08/31 00:36:21;;;;;;;7.30;4.13;;;24.00;99.90;;;;;;4865664;29;20476;-83
2021/08/31 00:38:47;;;;;;;8.70;4.93;;;24.00;99.90;;;;;;4881871;29;20119;-83
2021/08/31 00:41:12;;;;;;;6.90;4.25;;;24.00;99.90;;;;;;4865240;29;20036;-83
2021/08/31 00:43:46;;;;;;;6.80;4.20;;;24.00;99.90;;;;;;4865376;29;20037;-84
2021/08/31 00:46:15;;;;;;;7.00;4.43;;;24.00;99.90;;;;;;4882189;29;20115;-83
2021/08/31 00:48:46;;;;;;;5.95;4.15;;;24.00;99.90;;;;;;4882000;29;20040;-84
2021/08/31 00:51:13;;;;;;;7.32;4.25;;;24.00;99.90;;;;;;4881663;29;20037;-83
2021/08/31 00:53:40;;;;;;;6.85;4.53;;;24.00;99.90;;;;;;4881800;29;20037;-83
2021/08/31 00:56:11;;;;;;;7.32;4.47;;;24.00;99.90;;;;;;4881329;29;20033;-84
2021/08/31 00:58:38;;;;;;;6.85;4.30;;;24.00;99.90;;;;;;4865111;29;20079;-84
2021/08/31 01:01:04;;;;;;;7.05;4.80;;;24.00;99.90;;;;;;4881541;29;20029;-84
2021/08/31 01:03:30;;;;;;;6.07;4.65;;;24.10;99.90;;;;;;4881680;29;20029;-83
2021/08/31 01:06:01;;;;;;;6.10;4.00;;;24.10;99.90;;;;;;4881411;29;20093;-84
2021/08/31 01:08:31;;;;;;;6.03;4.30;;;24.00;99.90;;;;;;4864996;29;20432;-83
2021/08/31 01:11:00;;;;;;;6.97;3.58;;;24.00;99.90;;;;;;4881650;29;20051;-83
2021/08/31 01:13:28;;;;;;;6.55;4.20;;;24.00;99.90;;;;;;4881782;29;20044;-83
2021/08/31 01:15:53;;;;;;;6.18;3.90;;;24.10;99.90;;;;;;4880862;29;20472;-83
2021/08/31 01:18:22;;;;;;;6.07;4.15;;;24.00;99.90;;;;;;4864756;29;20041;-84
2021/08/31 01:20:52;;;;;;;8.50;4.53;;;24.00;99.90;;;;;;4864359;29;20480;-84
2021/08/31 01:23:19;;;;;;;5.55;4.10;;;24.00;99.90;;;;;;4881373;29;20088;-83
2021/08/31 01:25:45;;;;;;;6.47;4.32;;;24.00;99.90;;;;;;4864857;29;20037;-83
2021/08/31 01:28:20;;;;;;;6.53;3.85;;;24.00;99.90;;;;;;4881139;29;20069;-83
2021/08/31 01:30:48;;;;;;;6.82;3.92;;;24.00;99.90;;;;;;4864596;29;20428;-84
2021/08/31 01:33:13;;;;;;;8.23;4.32;;;24.00;99.90;;;;;;4881163;29;20020;-83
2021/08/31 01:35:39;;;;;;;8.57;4.63;;;24.00;99.90;;;;;;4864451;29;20049;-83
2021/08/31 01:38:05;;;;;;;7.35;4.13;;;24.00;99.90;;;;;;4880513;29;20092;-84
2021/08/31 01:40:30;;;;;;;7.43;4.55;;;24.00;99.90;;;;;;4864222;29;20044;-84
2021/08/31 01:42:56;;;;;;;6.75;4.63;;;24.00;99.90;;;;;;4880609;29;20072;-83
2021/08/31 01:45:22;;;;;;;6.70;4.07;;;24.00;99.90;;;;;;4864212;29;20116;-83
2021/08/31 01:47:47;;;;;;;6.85;4.70;;;24.00;99.90;;;;;;4881075;29;20045;-83
2021/08/31 01:50:13;;;;;;;6.40;4.30;;;24.00;99.90;;;;;;4848640;29;20033;-83
2021/08/31 01:52:40;;;;;;;6.80;4.18;;;24.00;99.90;;;;;;4880906;29;20057;-83
2021/08/31 01:55:06;;;;;;;7.43;4.15;;;24.00;99.90;;;;;;4848773;29;20041;-83
2021/08/31 01:57:32;;;;;;;6.85;4.30;;;24.00;99.90;;;;;;4880440;29;20034;-83
2021/08/31 01:59:58;;;;;;;9.38;4.47;;;24.00;99.90;;;;;;4880864;29;20124;-83
2021/08/31 02:02:24;;;;;;;7.57;4.32;;;24.00;99.90;;;;;;4880814;29;20120;-84
2021/08/31 02:04:49;;;;;;;5.22;3.90;;;24.00;99.90;;;;;;4863846;29;20072;-83
2021/08/31 02:07:15;;;;;;;8.00;4.57;;;24.00;99.90;;;;;;4880476;29;20480;-83
2021/08/31 02:09:40;;;;;;;6.40;4.07;;;24.00;99.90;;;;;;4880810;29;20081;-83
2021/08/31 02:12:06;;;;;;;5.70;4.30;;;24.00;99.90;;;;;;4880536;29;20037;-83
2021/08/31 02:14:32;;;;;;;5.20;4.07;;;24.00;99.90;;;;;;4880142;29;20040;-83
2021/08/31 02:16:58;;;;;;;6.57;4.15;;;24.00;99.90;;;;;;4880209;29;20045;-83
2021/08/31 02:19:23;;;;;;;6.65;4.03;;;24.00;99.90;;;;;;4880470;29;20388;-83
2021/08/31 02:21:49;;;;;;;6.25;4.10;;;24.00;99.90;;;;;;4880193;29;20049;-84
2021/08/31 02:24:15;;;;;;;4.88;3.80;;;24.00;99.90;;;;;;4879905;29;20041;-84
2021/08/31 02:26:40;;;;;;;5.10;4.22;;;24.00;99.90;;;;;;4879982;29;20040;-83
2021/08/31 02:29:06;;;;;;;5.63;4.20;;;24.00;99.90;;;;;;4879167;29;20121;-84
2021/08/31 02:31:32;;;;;;;6.15;3.70;;;24.00;99.90;;;;;;4879910;29;20060;-83
2021/08/31 02:33:57;;;;;;;7.13;4.82;;;24.00;99.90;;;;;;4879876;29;20085;-84
2021/08/31 02:36:23;;;;;;;6.72;3.90;;;24.00;99.90;;;;;;4879958;29;20037;-83
2021/08/31 02:38:49;;;;;;;7.57;4.60;;;24.00;99.90;;;;;;4879690;29;20037;-83
2021/08/31 02:41:15;;;;;;;5.22;3.60;;;24.00;99.90;;;;;;4879784;29;20120;-84
2021/08/31 02:43:40;;;;;;;7.93;3.85;;;24.00;99.90;;;;;;4863311;29;20040;-84
2021/08/31 02:46:06;;;;;;;6.32;4.18;;;24.00;99.90;;;;;;4879741;29;20036;-83
2021/08/31 02:48:31;;;;;;;6.80;4.18;;;24.00;99.90;;;;;;4863123;29;20037;-83
2021/08/31 02:50:57;;;;;;;5.78;4.25;;;24.00;99.90;;;;;;4862781;29;20119;-87
2021/08/31 02:53:23;;;;;;;7.78;4.60;;;24.00;99.80;;;;;;4879751;29;20040;-84
2021/08/31 02:55:48;;;;;;;6.03;4.07;;;24.00;99.80;;;;;;4863086;29;20131;-84
2021/08/31 02:58:14;;;;;;;7.60;4.55;;;24.00;99.80;;;;;;4879425;29;20044;-84
2021/08/31 03:00:42;;;;;;;7.40;4.53;;;23.90;99.80;;;;;;4879746;29;20061;-83
2021/08/31 03:03:09;;;;;;;6.93;4.40;;;23.90;99.80;;;;;;4879517;29;20033;-84
2021/08/31 03:05:36;;;;;;;7.43;4.38;;;23.90;99.80;;;;;;4879682;29;20036;-83
2021/08/31 03:08:02;;;;;;;6.32;3.90;;;24.00;99.80;;;;;;4879439;29;20029;-84
2021/08/31 03:10:28;;;;;;;5.75;4.40;;;23.90;99.70;;;;;;4879632;29;20029;-84
2021/08/31 03:12:53;;;;;;;7.75;4.63;;;23.90;99.70;;;;;;4863003;29;20033;-84
2021/08/31 03:15:19;;;;;;;7.70;5.15;;;23.90;99.70;;;;;;4862798;29;20534;-83
2021/08/31 03:17:45;;;;;;;10.18;5.13;;;23.90;99.70;;;;;;4862885;29;20033;-83
2021/08/31 03:20:11;;;;;;;7.45;4.93;;;23.90;99.70;;;;;;4847141;29;20116;-83
2021/08/31 03:22:37;;;;;;;7.60;4.97;;;23.90;99.70;;;;;;4862806;29;20053;-84
2021/08/31 03:25:03;;;;;;;8.50;5.28;;;23.90;99.70;;;;;;4878959;29;20037;-84
2021/08/31 03:27:29;;;;;;;7.18;5.03;;;23.90;99.70;;;;;;4879138;29;20033;-84
2021/08/31 03:29:55;;;;;;;8.88;5.80;;;23.90;99.70;;;;;;4862567;29;20457;-84
2021/08/31 03:32:20;;;;;;;8.20;5.80;;;23.90;99.60;;;;;;4878823;29;20040;-83
2021/08/31 03:34:46;;;;;;;9.70;6.47;;;23.90;99.60;;;;;;4847148;29;20139;-83
2021/08/31 03:37:11;;;;;;;9.40;6.15;;;23.90;99.60;;;;;;4878923;29;20105;-84
2021/08/31 03:39:37;;;;;;;7.22;5.53;;;23.80;99.70;;;;;;4864325;29;20037;-83
2021/08/31 03:42:06;;;;;;;10.45;6.47;;;23.90;99.60;;;;;;4866422;29;20066;-86
2021/08/31 03:44:31;;;;;;;9.00;6.13;;;23.90;99.50;;;;;;4882758;29;20064;-83
2021/08/31 03:46:57;;;;;;;10.90;6.75;;;23.80;99.50;;;;;;4866351;29;20081;-83
2021/08/31 03:49:23;;;;;;;11.48;7.20;;;23.80;99.50;;;;;;4850688;29;20056;-83
2021/08/31 03:51:48;;;;;;;9.30;6.60;;;23.80;99.50;;;;;;4866368;29;20033;-83
2021/08/31 03:54:14;;;;;;;10.15;6.95;;;23.80;99.50;;;;;;4864191;29;20464;-83
2021/08/31 03:56:39;;;;;;;12.32;7.82;;;23.80;99.50;;;;;;4882740;29;20506;-83
2021/08/31 03:59:06;;;;;;;11.55;7.10;;;23.80;99.50;;;;;;4865956;29;20037;-84
2021/08/31 04:01:31;;;;;;;12.10;7.60;;;23.80;99.50;;;;;;4866153;29;20141;-83
2021/08/31 04:03:57;;;;;;;12.05;7.93;;;23.80;99.50;;;;;;4866224;29;20482;-83
2021/08/31 04:06:23;;;;;;;9.73;6.72;;;23.80;99.50;;;;;;4865587;29;20055;-83
2021/08/31 04:08:49;;;;;;;11.55;7.95;;;23.80;99.50;;;;;;4865845;29;20047;-83
2021/08/31 04:11:14;;;;;;;10.35;7.53;;;23.80;99.40;;;;;;4882181;29;20107;-84
2021/08/31 04:13:40;;;;;;;12.13;8.50;;;23.80;99.40;;;;;;4882638;29;20037;-84
2021/08/31 04:16:05;;;;;;;12.15;8.10;;;23.80;99.40;;;;;;4882394;29;20183;-83
2021/08/31 04:18:31;;;;;;;10.43;7.95;;;23.80;99.40;;;;;;4865202;29;20037;-83
2021/08/31 04:20:57;;;;;;;10.85;8.32;;;23.70;99.40;;;;;;4865753;29;20088;-83
2021/08/31 04:23:22;;;;;;;13.15;8.50;;;23.80;99.40;;;;;;4865043;29;20079;-83
2021/08/31 04:25:48;;;;;;;12.32;8.00;;;23.80;99.40;;;;;;4850298;29;20423;-82
2021/08/31 04:28:14;;;;;;;13.88;9.27;;;23.80;99.40;;;;;;4866694;29;20511;-83
2021/08/31 04:30:40;;;;;;;10.50;7.93;;;23.80;99.40;;;;;;4882087;29;20025;-83
2021/08/31 04:33:05;;;;;;;13.63;8.65;;;23.80;99.40;;;;;;4865340;29;20392;-83
2021/08/31 04:35:31;;;;;;;13.07;8.73;;;23.70;99.40;;;;;;4864526;29;20067;-84
2021/08/31 04:37:57;;;;;;;14.38;8.73;;;23.70;99.40;;;;;;4881310;29;20379;-83
2021/08/31 04:40:23;;;;;;;14.65;8.90;;;23.80;99.40;;;;;;4881070;29;20033;-84
2021/08/31 04:42:50;;;;;;;12.65;9.00;;;23.70;99.30;;;;;;4849823;29;20503;-84
2021/08/31 04:45:16;;;;;;;13.45;9.20;;;23.80;99.30;;;;;;4865158;29;20037;-85
2021/08/31 04:47:41;;;;;;;14.20;9.63;;;23.80;99.40;;;;;;4865625;29;20388;-83
2021/08/31 04:50:08;;;;;;;14.27;10.10;;;23.80;99.30;;;;;;4864827;29;20040;-84
2021/08/31 04:52:33;;;;;;;14.13;10.07;;;23.80;99.30;;;;;;4880779;29;20053;-84
2021/08/31 04:54:59;;;;;;;14.18;10.43;;;23.80;99.40;;;;;;4881503;29;20033;-84
2021/08/31 04:57:25;;;;;;;16.67;11.13;;;23.80;99.40;;;;;;4864766;29;20034;-84
2021/08/31 04:59:50;;;;;;;12.35;9.90;;;23.80;99.40;;;;;;4881712;29;20049;-83
2021/08/31 05:02:16;;;;;;;14.30;9.75;;;23.80;99.40;;;;;;4880905;29;20120;-83
2021/08/31 05:04:42;;;;;;;15.38;9.90;;;23.80;99.40;;;;;;4864859;29;20044;-83
2021/08/31 05:07:10;;;;;;;13.35;8.60;;;23.80;99.40;;;;;;4881310;29;20120;-83
2021/08/31 05:09:42;;;;;;;14.82;9.45;;;23.80;99.40;;;;;;4864383;29;20060;-83
2021/08/31 05:12:09;;;;;;;12.52;8.43;;;23.80;99.40;;;;;;4881700;29;20029;-83
2021/08/31 05:14:35;;;;;;;14.45;8.43;;;23.80;99.40;;;;;;4880971;29;20072;-83
2021/08/31 05:17:02;;;;;;;11.25;6.95;;;23.80;99.40;;;;;;4864797;29;20029;-83
2021/08/31 05:19:28;;;;;;;14.80;7.47;;;23.80;99.30;;;;;;4864567;29;20044;-84
2021/08/31 05:21:53;;;;;;;10.27;6.80;;;23.80;99.30;;;;;;4881093;29;20045;-84
2021/08/31 05:24:19;;;;;;;12.98;6.82;;;23.80;99.30;;;;;;4864362;29;20440;-86
2021/08/31 05:26:45;;;;;;;10.75;6.88;;;23.70;99.20;;;;;;4849307;29;20037;-84
2021/08/31 05:29:10;;;;;;;12.70;7.15;;;23.70;99.20;;;;;;4864326;29;20037;-83
2021/08/31 05:31:36;;;;;;;11.10;7.18;;;23.80;99.20;;;;;;4880867;29;20128;-84
2021/08/31 05:34:02;;;;;;;9.30;6.25;;;23.80;99.20;;;;;;4864529;29;20127;-88
2021/08/31 05:36:27;;;;;;;10.02;6.43;;;23.80;99.20;;;;;;4863910;29;20040;-89
2021/08/31 05:38:53;;;;;;;10.27;6.05;;;23.80;99.20;;;;;;4864316;29;20074;-89
2021/08/31 05:41:19;;;;;;;10.02;5.63;;;23.80;99.20;;;;;;4863639;29;20026;-91
2021/08/31 05:43:44;;;;;;;9.77;5.68;;;23.80;99.10;;;;;;4880970;29;20041;-89
2021/08/31 05:46:10;;;;;;;10.60;6.25;;;23.80;99.10;;;;;;4864499;29;20424;-88
2021/08/31 05:48:36;;;;;;;8.52;5.32;;;23.80;99.10;;;;;;4863736;29;20041;-89
2021/08/31 05:51:02;;;;;;;10.98;5.78;;;23.80;99.00;;;;;;4848317;29;20120;-89
2021/08/31 05:53:28;;;;;;;9.00;5.47;;;23.80;99.20;;;;;;4863751;29;20044;-89
2021/08/31 05:55:54;;;;;;;10.07;5.47;;;23.90;99.00;;;;;;4848708;29;20037;-89
2021/08/31 05:58:20;;;;;;;13.65;5.82;;;23.80;99.00;;;;;;4863259;29;20120;-90
2021/08/31 06:00:45;;;;;;;9.85;4.78;;;23.80;99.00;;;;;;4862063;29;20128;-89
2021/08/31 06:03:11;;;;;;;11.93;5.07;;;23.80;99.00;;;;;;4879361;29;20036;-87
2021/08/31 06:05:38;;;;;;;9.30;5.10;;;23.90;99.00;;;;;;4862546;29;20041;-87
2021/08/31 06:08:03;;;;;;;10.43;5.35;;;23.80;98.90;;;;;;4863587;29;20139;-87
2021/08/31 06:10:29;;;;;;;7.15;4.80;;;23.90;99.00;;;;;;4863479;29;20385;-88
2021/08/31 06:12:56;;;;;;;7.80;4.25;;;23.90;99.00;;;;;;4863545;29;20025;-86
2021/08/31 06:15:22;;;;;;;9.18;5.05;;;23.90;99.00;;;;;;4863577;29;20068;-88
2021/08/31 06:17:48;;;;;;;10.25;4.88;;;23.90;99.00;;;;;;4863747;29;20076;-86
2021/08/31 06:20:14;;;;;;;9.13;4.88;;;23.90;99.00;;;;;;4879971;29;20120;-85
2021/08/31 06:22:39;;;;;;;9.85;4.50;;;23.90;99.00;;;;;;4879306;29;20049;-86
2021/08/31 06:25:06;;;;;;;10.25;4.53;;;23.90;99.00;;;;;;4880176;29;20037;-86
2021/08/31 06:27:32;;;;;;;10.57;4.88;;;23.90;99.00;;;;;;4863282;29;20403;-85
2021/08/31 06:29:57;;;;;;;11.15;5.50;;;23.90;99.00;;;;;;4879979;29;20468;-84
2021/08/31 06:32:23;;;;;;;9.10;4.72;;;23.90;99.00;;;;;;4879542;29;20036;-89
2021/08/31 06:34:49;;;;;;;8.65;4.97;;;23.90;99.00;;;;;;4863675;29;20041;-84
2021/08/31 06:37:14;;;;;;;8.38;4.50;;;23.90;99.00;;;;;;4863145;29;20417;-83
2021/08/31 06:39:40;;;;;;;8.50;4.55;;;23.90;99.00;;;;;;4878529;29;20393;-84
2021/08/31 06:42:06;;;;;;;8.40;4.68;;;23.90;99.00;;;;;;4877893;29;20407;-85
2021/08/31 06:44:31;;;;;;;9.30;4.97;;;23.90;99.00;;;;;;4861957;29;20033;-83
2021/08/31 06:46:57;;;;;;;9.90;4.63;;;23.90;99.00;;;;;;4862988;29;20044;-83
2021/08/31 06:49:23;;;;;;;9.15;4.22;;;23.90;99.00;;;;;;4879502;29;20040;-83
2021/08/31 06:51:48;;;;;;;11.00;4.70;;;23.80;99.00;;;;;;4879016;29;20112;-83
2021/08/31 06:54:14;;;;;;;9.35;4.50;;;23.80;99.00;;;;;;4879318;29;20025;-84
2021/08/31 06:56:40;;;;;;;9.75;4.47;;;23.80;99.00;;;;;;4879626;29;20501;-83
2021/08/31 06:59:05;;;;;;;10.27;4.70;;;23.80;99.00;;;;;;4863196;29;20052;-83
2021/08/31 07:01:31;;;;;;;7.40;4.30;;;23.80;99.10;;;;;;4862978;29;20041;-83
2021/08/31 07:03:57;;;;;;;7.55;4.57;;;23.80;99.10;;;;;;4862871;29;20029;-83
2021/08/31 07:06:24;;;;;;;9.57;4.78;;;23.70;99.10;;;;;;4862972;29;20036;-83
2021/08/31 07:08:49;;;;;;;9.35;4.70;;;23.80;99.20;;;;;;4862349;29;20045;-84
2021/08/31 07:11:15;;;;;;;8.73;4.60;;;23.80;99.20;;;;;;4879425;29;20490;-84
2021/08/31 07:13:41;;;;;;;8.65;4.05;;;23.80;99.20;;;;;;4862120;29;20396;-84
2021/08/31 07:16:07;;;;;;;11.38;5.05;;;23.80;99.30;;;;;;4847461;29;20502;-83
2021/08/31 07:18:32;;;;;;;12.02;4.68;;;23.80;99.30;;;;;;4879192;29;20037;-84
2021/08/31 07:20:58;;;;;;;8.23;4.60;;;23.70;99.30;;;;;;4879112;29;20476;-84
2021/08/31 07:23:23;;;;;;;10.18;5.20;;;23.70;99.30;;;;;;4879398;29;20084;-84
2021/08/31 07:25:49;;;;;;;7.53;4.72;;;23.70;99.30;;;;;;4878957;29;20041;-85
2021/08/31 07:28:15;;;;;;;8.18;4.78;;;23.70;99.50;;;;;;4879446;29;20041;-84
2021/08/31 07:30:41;;;;;;;7.60;4.47;;;23.70;99.30;;;;;;4862488;29;20088;-84
2021/08/31 07:33:07;;;;;;;10.32;4.88;;;23.70;99.30;;;;;;4879135;29;20112;-84
2021/08/31 07:35:34;;;;;;;7.07;3.95;;;23.70;99.30;;;;;;4879134;29;20112;-84
2021/08/31 07:37:59;;;;;;;7.63;4.88;;;23.70;99.30;;;;;;4879234;29;20033;-84
2021/08/31 07:40:25;;;;;;;9.10;4.43;;;23.70;99.30;;;;;;4879351;29;20392;-83
2021/08/31 07:42:52;;;;;;;7.35;3.88;;;23.80;99.40;;;;;;4862401;29;20041;-84
2021/08/31 07:45:19;;;;;;;8.95;4.53;;;23.70;99.40;;;;;;4847099;29;20033;-84
2021/08/31 07:47:44;;;;;;;8.95;4.63;;;23.80;99.40;;;;;;4862551;29;20037;-84
2021/08/31 07:50:10;;;;;;;12.18;3.80;;;23.80;99.40;;;;;;4862235;29;20059;-84
2021/08/31 07:52:36;;;;;;;10.65;4.47;;;23.80;99.40;;;;;;4878946;29;20101;-85
2021/08/31 07:55:08;;;;;;;8.68;4.25;;;23.80;99.40;;;;;;4862518;29;20449;-84
2021/08/31 07:57:37;;;;;;;8.68;4.32;;;23.70;99.40;;;;;;4878734;29;20037;-83
2021/08/31 08:00:07;;;;;;;7.05;4.40;;;23.70;99.40;;;;;;4878738;29;20077;-81
2021/08/31 08:02:34;;;;;;;11.15;4.53;;;23.80;99.40;;;;;;4862232;29;20069;-84
2021/08/31 08:05:05;;;;;;;7.72;3.90;;;23.80;99.40;;;;;;4879081;29;20029;-80
2021/08/31 08:07:31;;;;;;;7.45;4.13;;;23.80;99.40;;;;;;4878871;29;20036;-79
2021/08/31 08:09:57;;;;;;;10.93;4.82;;;23.70;99.40;;;;;;4878422;29;20467;-80
2021/08/31 08:12:23;;;;;;;9.40;4.78;;;23.70;99.40;;;;;;4878917;29;20038;-81
2021/08/31 08:14:50;;;;;;;8.82;4.57;;;23.80;99.40;;;;;;4878739;29;20025;-82
2021/08/31 08:17:19;;;;;;;9.10;4.72;;;23.80;99.40;;;;;;4878885;29;20079;-81
2021/08/31 08:19:46;;;;;;;10.02;4.20;;;23.80;99.40;;;;;;4878582;29;20033;-81
2021/08/31 08:22:12;;;;;;;8.75;4.35;;;23.70;99.30;;;;;;4878488;29;20151;-81
2021/08/31 08:24:38;;;;;;;9.25;4.72;;;23.80;99.30;;;;;;4878574;29;20041;-82
2021/08/31 08:27:04;;;;;;;5.97;3.85;;;23.80;99.30;;;;;;4864414;29;20033;-81
2021/08/31 08:29:29;;;;;;;9.75;4.35;;;23.80;99.40;;;;;;4865692;29;20147;-81
2021/08/31 08:31:55;;;;;;;19.88;5.68;;;23.80;99.40;;;;;;4882041;29;20450;-81
2021/08/31 08:34:22;;;;;;;10.57;5.07;;;23.80;99.40;;;;;;4882186;29;20076;-81
2021/08/31 08:36:48;;;;;;;11.23;4.90;;;23.80;99.40;;;;;;4881908;29;20033;-81
2021/08/31 08:39:13;;;;;;;9.82;4.88;;;23.90;99.40;;;;;;4881910;29;20044;-81
2021/08/31 08:41:40;;;;;;;9.00;4.68;;;23.90;99.40;;;;;;4864982;29;20044;-81
2021/08/31 08:44:06;;;;;;;7.75;4.13;;;23.80;99.30;;;;;;4881801;29;20544;-81
2021/08/31 08:46:32;;;;;;;8.43;4.47;;;23.90;99.40;;;;;;4882250;29;20113;-81
2021/08/31 08:48:58;;;;;;;8.73;4.35;;;23.90;99.30;;;;;;4881573;29;20480;-81
2021/08/31 08:51:24;;;;;;;9.88;5.07;;;23.90;99.30;;;;;;4881608;29;20037;-81
2021/08/31 08:53:50;;;;;;;10.48;4.93;;;23.90;99.40;;;;;;4881580;29;20456;-81
2021/08/31 08:56:16;;;;;;;12.43;4.53;;;23.80;99.30;;;;;;4881754;29;20100;-81
2021/08/31 08:58:42;;;;;;;10.98;4.60;;;23.80;99.30;;;;;;4881699;29;20108;-81
2021/08/31 09:01:11;;;;;;;8.18;4.57;;;23.80;99.30;;;;;;4882096;29;20468;-78
2021/08/31 09:03:42;;;;;;;11.00;4.72;;;23.80;99.30;;;;;;4881287;29;20044;-79
2021/08/31 09:06:20;;;;;;;9.57;4.47;;;23.80;99.30;;;;;;4881739;29;20029;-79
2021/08/31 09:08:58;;;;;;;7.93;4.60;;;23.80;99.40;;;;;;4880899;29;20547;-79
2021/08/31 09:11:40;;;;;;;9.57;4.40;;;23.80;99.40;;;;;;4881413;29;20065;-79
2021/08/31 09:14:30;;;;;;;6.80;4.22;;;23.80;99.40;;;;;;4881516;29;20036;-79
2021/08/31 09:16:59;;;;;;;6.95;3.92;;;23.70;99.30;;;;;;4881153;29;20494;-79
2021/08/31 09:19:33;;;;;;;11.48;4.38;;;23.70;99.30;;;;;;4881072;29;20033;-80
2021/08/31 09:22:20;;;;;;;8.43;4.32;;;23.70;99.30;;;;;;4864344;29;20087;-79
2021/08/31 09:25:09;;;;;;;8.98;4.53;;;23.80;99.40;;;;;;4881095;29;20483;-81
2021/08/31 09:27:40;;;;;;;9.50;4.63;;;23.80;99.30;;;;;;4881305;29;20040;-81
2021/08/31 09:30:17;;;;;;;10.18;4.28;;;23.70;99.30;;;;;;4864318;29;20387;-81
2021/08/31 09:33:01;;;;;;;9.15;4.85;;;23.70;99.30;;;;;;4880973;29;20033;-86
2021/08/31 09:35:33;;;;;;;9.13;4.80;;;23.70;99.30;;;;;;4881147;29;20088;-80
2021/08/31 09:38:01;;;;;;;10.20;5.05;;;23.70;99.20;;;;;;4880485;29;20085;-80
2021/08/31 09:40:30;;;;;;;8.43;4.20;;;23.70;99.20;;;;;;4880617;29;20480;-81
2021/08/31 09:42:55;;;;;;;8.07;4.95;;;23.70;99.20;;;;;;4880773;29;20033;-81
2021/08/31 09:45:31;;;;;;;10.43;4.75;;;23.70;99.10;;;;;;4880980;29;20036;-80
2021/08/31 09:47:58;;;;;;;10.25;4.22;;;23.70;99.10;;;;;;4864017;29;20037;-80
2021/08/31 09:50:38;;;;;;;9.10;4.35;;;23.70;99.10;;;;;;4880868;29;20060;-80
2021/08/31 09:53:13;;;;;;;10.27;4.72;;;23.70;99.10;;;;;;4880601;29;20029;-80
2021/08/31 09:55:40;;;;;;;7.75;3.75;;;23.70;99.00;;;;;;4864035;29;20381;-80
2021/08/31 09:58:26;;;;;;;7.82;4.35;;;23.70;99.00;;;;;;4880137;29;20053;-80
2021/08/31 10:00:53;;;;;;;8.25;4.25;;;23.70;99.00;;;;;;4880070;29;20041;-81
2021/08/31 10:03:21;;;;;;;11.13;4.82;;;23.80;98.90;;;;;;4880346;29;20039;-80
2021/08/31 10:05:49;;;;;;;6.95;4.50;;;23.80;98.90;;;;;;4880388;29;20116;-84
2021/08/31 10:08:16;;;;;;;7.82;4.82;;;23.80;98.80;;;;;;4880802;29;20135;-80
2021/08/31 10:10:43;;;;;;;8.18;4.18;;;23.80;98.70;;;;;;4880453;29;20377;-80
2021/08/31 10:13:11;;;;;;;7.60;4.28;;;23.80;98.60;;;;;;4863564;29;20040;-80
2021/08/31 10:15:41;;;;;;;8.45;4.10;;;23.80;98.60;;;;;;4880362;29;20361;-80
2021/08/31 10:18:11;;;;;;;7.50;4.20;;;23.80;98.50;;;;;;4879798;29;20480;-80
2021/08/31 10:21:13;;;;;;;6.85;3.65;;;23.80;98.50;;;;;;4880347;29;20037;-80
2021/08/31 10:23:49;;;;;;;10.43;4.55;;;23.80;98.40;;;;;;4880345;29;20056;-80
2021/08/31 10:26:34;;;;;;;8.35;4.38;;;23.80;98.40;;;;;;4880280;29;20029;-80
2021/08/31 10:29:18;;;;;;;8.52;4.53;;;23.80;98.40;;;;;;4863232;29;20040;-80
2021/08/31 10:31:46;;;;;;;7.28;3.80;;;23.80;98.30;;;;;;4879863;29;20033;-80
2021/08/31 10:34:30;;;;;;;8.55;4.00;;;23.80;98.30;;;;;;4879520;29;20025;-80
2021/08/31 10:37:06;;;;;;;7.35;3.72;;;23.90;98.30;;;;;;4863205;29;20506;-80
2021/08/31 10:39:52;;;;;;;9.30;4.18;;;23.90;98.40;;;;;;4863140;29;20492;-80
2021/08/31 10:42:26;;;;;;;8.02;3.88;;;23.90;98.10;;;;;;4879859;29;20033;-80
2021/08/31 10:44:56;;;;;;;;;;;23.90;98.10;;;;;;4863090;29;20081;-81
2021/08/31 10:47:39;;;;;;;7.88;4.70;;;23.90;98.10;;;;;;4879588;29;19948;-80
2021/08/31 10:50:09;;;;;;;11.30;4.68;;;23.90;98.10;;;;;;4879067;29;20033;-81
2021/08/31 10:53:02;;;;;;;8.55;4.78;;;23.90;98.10;;;;;;4880062;29;20120;-80
2021/08/31 10:55:28;;;;;;;7.28;4.22;;;23.90;98.10;;;;;;4880119;29;20471;-80
2021/08/31 10:57:55;;;;;;;8.13;4.20;;;23.90;98.20;;;;;;4879675;29;20053;-80
2021/08/31 11:00:20;;;;;;;9.30;4.57;;;23.90;98.20;;;;;;4879807;29;20120;-80
2021/08/31 11:02:46;;;;;;;9.25;4.55;;;23.90;98.20;;;;;;4879407;29;20060;-80
2021/08/31 11:05:18;;;;;;;10.23;4.80;;;23.90;98.30;;;;;;4879346;29;20029;-80
2021/08/31 11:07:44;;;;;;;7.45;4.15;;;23.90;98.30;;;;;;4879557;29;20025;-80
2021/08/31 11:10:10;;;;;;;9.60;4.60;;;23.90;98.30;;;;;;4879264;29;20037;-80
2021/08/31 11:12:36;;;;;;;7.68;4.78;;;23.90;98.30;;;;;;4879518;29;20036;-80
2021/08/31 11:15:01;;;;;;;7.13;4.05;;;24.00;98.30;;;;;;4879356;29;20040;-80
2021/08/31 11:17:38;;;;;;;9.25;4.65;;;24.00;98.30;;;;;;4879148;29;20040;-80
2021/08/31 11:20:11;;;;;;;9.63;4.00;;;23.90;98.20;;;;;;4879014;29;20048;-80
2021/08/31 11:22:37;;;;;;;6.15;3.88;;;23.90;98.20;;;;;;4879301;29;20084;-80
2021/08/31 11:25:03;;;;;;;8.05;4.28;;;23.90;98.20;;;;;;4879473;29;20124;-80
2021/08/31 11:27:29;;;;;;;8.30;4.50;;;23.90;98.20;;;;;;4879112;29;20029;-81
2021/08/31 11:29:57;;;;;;;9.32;4.32;;;23.90;98.20;;;;;;4878935;29;20476;-80
2021/08/31 11:32:22;;;;;;;8.15;4.55;;;23.90;98.10;;;;;;4879217;29;20029;-80
2021/08/31 11:35:02;;;;;;;9.13;4.65;;;23.90;98.10;;;;;;4879250;29;20365;-80
2021/08/31 11:37:28;;;;;;;7.03;3.95;;;23.90;98.10;;;;;;4879438;29;20104;-82
2021/08/31 11:39:59;;;;;;;7.32;4.10;;;23.90;98.10;;;;;;4878930;29;20177;-80
2021/08/31 11:42:44;;;;;;;8.98;4.82;;;23.90;98.00;;;;;;4879227;29;20195;-80
2021/08/31 11:45:10;;;;;;;10.48;4.30;;;23.90;98.00;;;;;;4879027;29;20025;-80
2021/08/31 11:47:36;;;;;;;8.88;4.10;;;23.90;98.00;;;;;;4878786;29;20530;-80
2021/08/31 11:50:02;;;;;;;7.75;4.13;;;23.90;98.00;;;;;;4878639;29;20056;-80
2021/08/31 11:52:27;;;;;;;9.93;4.57;;;23.90;98.00;;;;;;4878930;29;20060;-80
2021/08/31 11:54:56;;;;;;;9.85;4.10;;;23.90;98.00;;;;;;4862157;29;20041;-80
2021/08/31 11:57:33;;;;;;;6.18;3.53;;;23.90;98.00;;;;;;4878863;29;20036;-80
2021/08/31 11:59:58;;;;;;;11.20;4.43;;;23.90;98.00;;;;;;4879744;29;20041;-82
2021/08/31 12:02:30;;;;;;;9.93;4.13;;;23.90;98.00;;;;;;4882779;29;20060;-80
2021/08/31 12:04:58;;;;;;;8.70;4.63;;;23.90;98.10;;;;;;4883070;29;20468;-80
2021/08/31 12:07:42;;;;;;;6.75;3.60;;;23.90;98.10;;;;;;4882410;29;20456;-80
2021/08/31 12:10:22;;;;;;;9.52;4.25;;;23.90;98.10;;;;;;4882513;29;20107;-80
2021/08/31 12:12:49;;;;;;;7.55;4.07;;;23.90;98.20;;;;;;4882672;29;20108;-80
2021/08/31 12:15:15;;;;;;;11.63;3.92;;;23.90;98.20;;;;;;4881924;29;20096;-80
2021/08/31 12:17:43;;;;;;;8.57;3.58;;;23.90;98.20;;;;;;4882068;29;20399;-80
2021/08/31 12:20:10;;;;;;;9.07;4.13;;;24.00;98.20;;;;;;4865681;29;20037;-80
2021/08/31 12:22:38;;;;;;;7.80;3.88;;;24.00;98.10;;;;;;4882089;29;20049;-80
2021/08/31 12:25:06;;;;;;;7.28;3.90;;;23.90;98.00;;;;;;4882159;29;20049;-81
2021/08/31 12:27:50;;;;;;;8.20;4.03;;;23.90;97.90;;;;;;4882182;29;20075;-81
2021/08/31 12:30:18;;;;;;;7.28;3.95;;;23.90;97.90;;;;;;4882125;29;20072;-80
2021/08/31 12:32:54;;;;;;;6.50;3.38;;;23.90;97.80;;;;;;4882017;29;20029;-80
2021/08/31 12:35:45;;;;;;;8.32;3.90;;;23.90;97.80;;;;;;4881969;29;20037;-81
2021/08/31 12:38:25;;;;;;;10.45;4.10;;;23.90;97.70;;;;;;4882175;29;20108;-80
2021/08/31 12:43:21;;;;;;;6.55;3.58;;;23.90;97.60;;;;;;4881769;29;20033;-81
2021/08/31 12:45:49;;;;;;;7.43;3.50;;;23.90;97.70;;;;;;4882127;29;20041;-80
2021/08/31 12:48:16;;;;;;;7.85;3.83;;;23.90;97.70;;;;;;4881668;29;20374;-80
2021/08/31 12:50:51;;;;;;;8.90;3.50;;;23.90;97.70;;;;;;4881580;29;20377;-80